Time,TemperatureF,DewpointF,PressureIn,WindDirection,WindDirectionDegrees,WindSpeedMPH,WindSpeedGustMPH,Humidity,HourlyPrecipIn,Conditions,Clouds,dailyrainin,SoftwareType,DateUTC
2013-04-02 00:00:00,36.5,30.3,29.94,East,90,0.4,1.1,78,0.00,,,0.00,WUHU216HW,2013-04-02 06:00:00,
2013-04-02 00:05:00,36.7,30.5,29.94,ENE,68,0.4,1.1,78,0.00,,,0.00,WUHU216HW,2013-04-02 06:05:00,
2013-04-02 00:10:00,36.7,30.5,29.94,ENE,68,0.0,0.7,78,0.00,,,0.00,WUHU216HW,2013-04-02 06:10:00,
2013-04-02 00:15:00,36.7,30.5,29.94,ENE,68,0.0,0.2,78,0.00,,,0.00,WUHU216HW,2013-04-02 06:15:00,
2013-04-02 00:20:00,36.5,30.3,29.93,NNE,23,0.0,2.0,78,0.00,,,0.00,WUHU216HW,2013-04-02 06:20:00,
2013-04-02 00:25:00,36.5,30.3,29.94,North,0,0.0,2.0,78,0.00,,,0.00,WUHU216HW,2013-04-02 06:25:00,
2013-04-02 00:30:00,36.5,30.3,29.94,ENE,68,0.0,0.7,78,0.00,,,0.00,WUHU216HW,2013-04-02 06:30:00,
2013-04-02 00:35:00,36.5,30.3,29.94,ESE,113,0.4,0.4,78,0.00,,,0.00,WUHU216HW,2013-04-02 06:35:00,
2013-04-02 00:40:00,36.4,30.2,29.94,North,0,1.1,1.1,78,0.00,,,0.00,WUHU216HW,2013-04-02 06:40:00,
2013-04-02 00:45:00,36.4,30.2,29.94,SE,135,0.0,1.3,78,0.00,,,0.00,WUHU216HW,2013-04-02 06:45:00,
2013-04-02 00:50:00,36.4,30.2,29.94,North,0,0.2,1.8,78,0.00,,,0.00,WUHU216HW,2013-04-02 06:50:00,
2013-04-02 00:55:00,36.2,30.0,29.94,NW,315,0.4,3.1,78,0.00,,,0.00,WUHU216HW,2013-04-02 06:55:00,
2013-04-02 01:00:00,36.0,29.8,29.94,North,0,0.4,3.1,78,0.00,,,0.00,WUHU216HW,2013-04-02 07:00:00,
2013-04-02 01:05:00,36.0,29.8,29.94,NE,45,0.2,0.9,78,0.00,,,0.00,WUHU216HW,2013-04-02 07:05:00,
2013-04-02 01:10:00,36.0,29.8,29.94,NNW,338,0.0,0.4,78,0.00,,,0.00,WUHU216HW,2013-04-02 07:10:00,
2013-04-02 01:15:00,36.0,29.8,29.93,WNW,293,0.2,1.3,78,0.00,,,0.00,WUHU216HW,2013-04-02 07:15:00,
2013-04-02 01:20:00,36.0,29.8,29.93,North,0,0.7,1.6,78,0.00,,,0.00,WUHU216HW,2013-04-02 07:20:00,
2013-04-02 01:25:00,35.8,29.6,29.93,North,0,0.7,1.8,78,0.00,,,0.00,WUHU216HW,2013-04-02 07:25:00,
2013-04-02 01:30:00,35.8,29.9,29.93,NE,45,1.1,1.8,79,0.00,,,0.00,WUHU216HW,2013-04-02 07:30:00,
2013-04-02 01:35:00,35.8,29.6,29.93,WNW,293,0.4,1.1,78,0.00,,,0.00,WUHU216HW,2013-04-02 07:35:00,
2013-04-02 01:40:00,35.8,29.6,29.93,SSE,158,0.7,1.1,78,0.00,,,0.00,WUHU216HW,2013-04-02 07:40:00,
2013-04-02 01:45:00,35.8,29.6,29.93,North,0,1.1,1.1,78,0.00,,,0.00,WUHU216HW,2013-04-02 07:45:00,
2013-04-02 01:50:00,35.8,29.6,29.93,NNW,338,0.4,1.1,78,0.00,,,0.00,WUHU216HW,2013-04-02 07:50:00,
2013-04-02 01:55:00,35.8,29.6,29.93,SE,135,0.0,0.4,78,0.00,,,0.00,WUHU216HW,2013-04-02 07:55:00,
2013-04-02 02:00:00,35.8,29.6,29.93,SE,135,0.0,0.4,78,0.00,,,0.00,WUHU216HW,2013-04-02 08:00:00,
2013-04-02 02:05:00,36.0,29.8,29.92,SSW,203,0.0,0.0,78,0.00,,,0.00,WUHU216HW,2013-04-02 08:05:00,
2013-04-02 02:10:00,36.0,29.8,29.93,SSW,203,0.0,0.0,78,0.00,,,0.00,WUHU216HW,2013-04-02 08:10:00,
2013-04-02 02:15:00,36.0,29.8,29.93,SE,135,0.0,0.0,78,0.00,,,0.00,WUHU216HW,2013-04-02 08:15:00,
2013-04-02 02:20:00,36.0,29.8,29.93,SE,135,0.0,0.0,78,0.00,,,0.00,WUHU216HW,2013-04-02 08:20:00,
2013-04-02 02:25:00,36.0,29.8,29.93,SE,135,0.0,0.0,78,0.00,,,0.00,WUHU216HW,2013-04-02 08:25:00,
2013-04-02 02:30:00,36.0,29.8,29.93,SE,135,0.0,0.0,78,0.00,,,0.00,WUHU216HW,2013-04-02 08:30:00,
2013-04-02 02:35:00,36.2,30.0,29.93,SE,135,0.0,0.0,78,0.00,,,0.00,WUHU216HW,2013-04-02 08:35:00,
2013-04-02 02:40:00,36.2,30.2,29.92,North,0,0.4,0.4,79,0.00,,,0.00,WUHU216HW,2013-04-02 08:40:00,
2013-04-02 02:45:00,36.2,30.0,29.92,North,0,0.0,0.4,78,0.00,,,0.00,WUHU216HW,2013-04-02 08:45:00,
2013-04-02 02:50:00,36.2,30.0,29.92,North,0,0.0,0.0,78,0.00,,,0.00,WUHU216HW,2013-04-02 08:50:00,
2013-04-02 02:55:00,36.4,30.2,29.92,WSW,248,0.0,1.1,78,0.00,,,0.00,WUHU216HW,2013-04-02 08:55:00,
2013-04-02 03:00:00,36.4,30.2,29.92,SW,225,0.0,1.1,78,0.00,,,0.00,WUHU216HW,2013-04-02 09:00:00,
2013-04-02 03:05:00,36.4,30.4,29.92,West,270,0.4,2.0,79,0.00,,,0.00,WUHU216HW,2013-04-02 09:05:00,
2013-04-02 03:10:00,36.4,30.2,29.92,SE,135,0.4,2.0,78,0.00,,,0.00,WUHU216HW,2013-04-02 09:10:00,
2013-04-02 03:15:00,36.4,30.4,29.92,ESE,113,0.0,1.1,79,0.00,,,0.00,WUHU216HW,2013-04-02 09:15:00,
2013-04-02 03:20:00,36.2,30.2,29.92,ESE,113,0.0,1.1,79,0.00,,,0.00,WUHU216HW,2013-04-02 09:20:00,
2013-04-02 03:25:00,36.2,30.2,29.92,ESE,113,0.0,0.0,79,0.00,,,0.00,WUHU216HW,2013-04-02 09:25:00,
2013-04-02 03:30:00,36.2,30.2,29.92,ESE,113,0.0,0.0,79,0.00,,,0.00,WUHU216HW,2013-04-02 09:30:00,
2013-04-02 03:35:00,36.4,30.4,29.92,ESE,113,0.0,0.0,79,0.00,,,0.00,WUHU216HW,2013-04-02 09:35:00,
2013-04-02 03:40:00,36.4,30.4,29.92,ESE,113,0.0,0.0,79,0.00,,,0.00,WUHU216HW,2013-04-02 09:40:00,
2013-04-02 03:45:00,36.4,30.4,29.92,ESE,113,0.4,0.4,79,0.00,,,0.00,WUHU216HW,2013-04-02 09:45:00,
2013-04-02 03:50:00,36.2,30.2,29.92,East,90,0.4,0.4,79,0.00,,,0.00,WUHU216HW,2013-04-02 09:50:00,
2013-04-02 03:55:00,36.2,30.2,29.92,ESE,113,0.0,0.4,79,0.00,,,0.00,WUHU216HW,2013-04-02 09:55:00,
2013-04-02 04:00:00,36.2,30.2,29.92,ESE,113,0.0,0.2,79,0.00,,,0.00,WUHU216HW,2013-04-02 10:00:00,
2013-04-02 04:05:00,36.4,30.8,29.92,East,90,0.0,0.0,80,0.00,,,0.00,WUHU216HW,2013-04-02 10:05:00,
2013-04-02 04:10:00,36.4,30.8,29.92,NNE,23,0.0,0.4,80,0.00,,,0.00,WUHU216HW,2013-04-02 10:10:00,
2013-04-02 04:15:00,36.4,30.4,29.92,NNE,23,0.0,0.4,79,0.00,,,0.00,WUHU216HW,2013-04-02 10:15:00,
2013-04-02 04:20:00,36.4,30.4,29.92,NNE,23,0.0,0.0,79,0.00,,,0.00,WUHU216HW,2013-04-02 10:20:00,
2013-04-02 04:25:00,36.4,30.4,29.92,NNE,23,0.4,0.4,79,0.00,,,0.00,WUHU216HW,2013-04-02 10:25:00,
2013-04-02 04:30:00,36.4,30.4,29.92,NNE,23,1.6,1.6,79,0.00,,,0.00,WUHU216HW,2013-04-02 10:30:00,
2013-04-02 04:35:00,36.2,30.2,29.92,NE,45,0.0,1.6,79,0.00,,,0.00,WUHU216HW,2013-04-02 10:35:00,
2013-04-02 04:40:00,36.2,30.6,29.92,NNE,23,1.1,1.1,80,0.00,,,0.00,WUHU216HW,2013-04-02 10:40:00,
2013-04-02 04:45:00,36.0,30.4,29.91,NNE,23,0.0,1.1,80,0.00,,,0.00,WUHU216HW,2013-04-02 10:45:00,
2013-04-02 04:50:00,36.0,30.4,29.91,NNE,23,0.0,1.1,80,0.00,,,0.00,WUHU216HW,2013-04-02 10:50:00,
2013-04-02 04:55:00,36.0,30.4,29.91,North,0,0.4,1.6,80,0.00,,,0.00,WUHU216HW,2013-04-02 10:55:00,
2013-04-02 05:00:00,36.2,30.6,29.91,NE,45,0.4,1.6,80,0.00,,,0.00,WUHU216HW,2013-04-02 11:00:00,
2013-04-02 05:05:00,36.2,30.6,29.91,NNE,23,0.0,0.4,80,0.00,,,0.00,WUHU216HW,2013-04-02 11:05:00,
2013-04-02 05:10:00,36.2,30.2,29.91,NE,45,0.0,0.4,79,0.00,,,0.00,WUHU216HW,2013-04-02 11:10:00,
2013-04-02 05:15:00,36.2,30.6,29.91,NE,45,0.0,0.4,80,0.00,,,0.00,WUHU216HW,2013-04-02 11:15:00,
2013-04-02 05:20:00,36.2,30.6,29.91,ESE,113,0.0,0.9,80,0.00,,,0.00,WUHU216HW,2013-04-02 11:20:00,
2013-04-02 05:25:00,36.2,30.6,29.91,ESE,113,0.0,0.9,80,0.00,,,0.00,WUHU216HW,2013-04-02 11:25:00,
2013-04-02 05:30:00,36.2,30.6,29.91,ESE,113,0.0,0.4,80,0.00,,,0.00,WUHU216HW,2013-04-02 11:30:00,
2013-04-02 05:35:00,36.2,30.6,29.91,ESE,113,0.0,0.0,80,0.00,,,0.00,WUHU216HW,2013-04-02 11:35:00,
2013-04-02 05:40:00,36.2,30.6,29.91,ESE,113,0.0,0.0,80,0.00,,,0.00,WUHU216HW,2013-04-02 11:40:00,
2013-04-02 05:45:00,36.4,30.8,29.91,SE,135,0.9,0.9,80,0.00,,,0.00,WUHU216HW,2013-04-02 11:45:00,
2013-04-02 05:50:00,36.4,30.8,29.91,SW,225,0.0,0.9,80,0.00,,,0.00,WUHU216HW,2013-04-02 11:50:00,
2013-04-02 05:55:00,36.5,31.0,29.91,SW,225,0.0,0.4,80,0.00,,,0.00,WUHU216HW,2013-04-02 11:55:00,
2013-04-02 06:00:00,36.5,31.0,29.91,SSE,158,0.4,1.1,80,0.00,,,0.00,WUHU216HW,2013-04-02 12:00:00,
2013-04-02 06:05:00,36.5,31.0,29.92,ESE,113,0.0,1.1,80,0.00,,,0.00,WUHU216HW,2013-04-02 12:05:00,
2013-04-02 06:10:00,36.4,30.8,29.92,ESE,113,0.7,0.7,80,0.00,,,0.00,WUHU216HW,2013-04-02 12:10:00,
2013-04-02 06:15:00,36.4,30.8,29.92,SE,135,3.4,3.4,80,0.00,,,0.00,WUHU216HW,2013-04-02 12:15:00,
2013-04-02 06:20:00,36.4,30.8,29.92,SSW,203,0.4,3.4,80,0.00,,,0.00,WUHU216HW,2013-04-02 12:20:00,
2013-04-02 06:25:00,36.2,30.6,29.92,SW,225,0.2,1.3,80,0.00,,,0.00,WUHU216HW,2013-04-02 12:25:00,
2013-04-02 06:30:00,36.2,30.6,29.92,SW,225,0.0,1.3,80,0.00,,,0.00,WUHU216HW,2013-04-02 12:30:00,
2013-04-02 06:35:00,36.2,30.6,29.92,NNW,338,0.0,0.7,80,0.00,,,0.00,WUHU216HW,2013-04-02 12:35:00,
2013-04-02 06:40:00,36.2,30.6,29.92,SSE,158,0.9,1.1,80,0.00,,,0.00,WUHU216HW,2013-04-02 12:40:00,
2013-04-02 06:45:00,36.2,30.6,29.92,SSE,158,1.3,1.3,80,0.00,,,0.00,WUHU216HW,2013-04-02 12:45:00,
2013-04-02 06:50:00,36.2,30.6,29.92,SSE,158,0.4,1.3,80,0.00,,,0.00,WUHU216HW,2013-04-02 12:50:00,
2013-04-02 06:55:00,36.2,30.6,29.92,WSW,248,0.2,1.3,80,0.00,,,0.00,WUHU216HW,2013-04-02 12:55:00,
2013-04-02 07:00:00,36.2,30.6,29.92,SW,225,1.6,1.6,80,0.00,,,0.00,WUHU216HW,2013-04-02 13:00:00,
2013-04-02 07:05:00,36.4,30.8,29.92,SSE,158,0.9,1.6,80,0.00,,,0.00,WUHU216HW,2013-04-02 13:05:00,
2013-04-02 07:10:00,36.2,30.6,29.92,SE,135,0.0,0.9,80,0.00,,,0.00,WUHU216HW,2013-04-02 13:10:00,
2013-04-02 07:15:00,36.2,30.6,29.92,SSE,158,0.0,0.7,80,0.00,,,0.00,WUHU216HW,2013-04-02 13:15:00,
2013-04-02 07:20:00,36.2,30.9,29.92,SSW,203,1.6,1.6,81,0.00,,,0.00,WUHU216HW,2013-04-02 13:20:00,
2013-04-02 07:25:00,36.0,30.7,29.92,SSE,158,0.0,1.6,81,0.00,,,0.00,WUHU216HW,2013-04-02 13:25:00,
2013-04-02 07:30:00,36.0,30.7,29.92,NNE,23,3.1,3.1,81,0.00,,,0.00,WUHU216HW,2013-04-02 13:30:00,
2013-04-02 07:35:00,35.6,30.6,29.92,North,0,2.5,3.1,82,0.00,,,0.00,WUHU216HW,2013-04-02 13:35:00,
2013-04-02 07:40:00,35.5,30.4,29.93,North,0,3.4,3.6,82,0.00,,,0.00,WUHU216HW,2013-04-02 13:40:00,
2013-04-02 07:45:00,35.3,30.2,29.92,North,0,1.1,3.6,82,0.00,,,0.00,WUHU216HW,2013-04-02 13:45:00,
2013-04-02 07:50:00,35.3,30.2,29.92,NNE,23,2.0,2.9,82,0.00,,,0.00,WUHU216HW,2013-04-02 13:50:00,
2013-04-02 07:55:00,35.3,30.2,29.92,NNE,23,1.1,2.5,82,0.00,,,0.00,WUHU216HW,2013-04-02 13:55:00,
2013-04-02 08:00:00,35.3,30.6,29.92,North,0,0.4,2.5,83,0.00,,,0.00,WUHU216HW,2013-04-02 14:00:00,
2013-04-02 08:05:00,35.3,30.2,29.93,North,0,0.0,1.8,82,0.00,,,0.00,WUHU216HW,2013-04-02 14:05:00,
2013-04-02 08:10:00,35.5,30.8,29.93,North,0,0.0,1.3,83,0.00,,,0.00,WUHU216HW,2013-04-02 14:10:00,
2013-04-02 08:15:00,35.8,30.8,29.92,NW,315,0.0,0.7,82,0.00,,,0.00,WUHU216HW,2013-04-02 14:15:00,
2013-04-02 08:20:00,36.0,31.0,29.93,ENE,68,0.4,0.4,82,0.00,,,0.00,WUHU216HW,2013-04-02 14:20:00,
2013-04-02 08:25:00,36.2,31.1,29.93,East,90,0.0,0.7,82,0.00,,,0.00,WUHU216HW,2013-04-02 14:25:00,
2013-04-02 08:30:00,36.4,31.3,29.92,East,90,0.0,0.7,82,0.00,,,0.00,WUHU216HW,2013-04-02 14:30:00,
2013-04-02 08:35:00,36.7,31.7,29.92,NE,45,0.4,0.7,82,0.00,,,0.00,WUHU216HW,2013-04-02 14:35:00,
2013-04-02 08:40:00,36.9,31.9,29.92,NNE,23,0.9,1.6,82,0.00,,,0.00,WUHU216HW,2013-04-02 14:40:00,
2013-04-02 08:45:00,37.1,32.0,29.92,NNW,338,0.0,1.6,82,0.00,,,0.00,WUHU216HW,2013-04-02 14:45:00,
2013-04-02 08:50:00,37.4,32.4,29.92,NNE,23,1.1,1.1,82,0.00,,,0.00,WUHU216HW,2013-04-02 14:50:00,
2013-04-02 08:55:00,37.8,32.8,29.92,ENE,68,1.8,1.8,82,0.00,,,0.00,WUHU216HW,2013-04-02 14:55:00,
2013-04-02 09:00:00,38.2,32.9,29.92,ENE,68,1.1,1.8,81,0.00,,,0.00,WUHU216HW,2013-04-02 15:00:00,
2013-04-02 09:05:00,38.5,33.2,29.92,ESE,113,0.9,1.8,81,0.00,,,0.00,WUHU216HW,2013-04-02 15:05:00,
2013-04-02 09:10:00,38.5,33.2,29.92,NNE,23,0.7,1.8,81,0.00,,,0.00,WUHU216HW,2013-04-02 15:10:00,
2013-04-02 09:15:00,38.7,33.4,29.92,ESE,113,1.1,2.2,81,0.00,,,0.00,WUHU216HW,2013-04-02 15:15:00,
2013-04-02 09:20:00,38.9,33.3,29.92,ESE,113,0.4,2.2,80,0.00,,,0.00,WUHU216HW,2013-04-02 15:20:00,
2013-04-02 09:25:00,38.7,33.1,29.92,ESE,113,0.9,2.5,80,0.00,,,0.00,WUHU216HW,2013-04-02 15:25:00,
2013-04-02 09:30:00,38.9,33.3,29.92,East,90,2.0,2.5,80,0.00,,,0.00,WUHU216HW,2013-04-02 15:30:00,
2013-04-02 09:35:00,39.2,33.7,29.92,East,90,1.3,2.0,80,0.00,,,0.00,WUHU216HW,2013-04-02 15:35:00,
2013-04-02 09:40:00,39.1,33.1,29.93,SE,135,1.1,1.8,79,0.00,,,0.00,WUHU216HW,2013-04-02 15:40:00,
2013-04-02 09:45:00,39.1,33.1,29.93,SE,135,1.1,2.5,79,0.00,,,0.00,WUHU216HW,2013-04-02 15:45:00,
2013-04-02 09:51:00,39.2,33.3,29.93,East,90,0.4,2.5,79,0.00,,,0.00,WUHU216HW,2013-04-02 15:51:00,
2013-04-02 09:56:00,39.2,33.3,29.93,NNE,23,1.8,1.8,79,0.00,,,0.00,WUHU216HW,2013-04-02 15:56:00,
2013-04-02 10:01:00,39.2,33.3,29.93,SSW,203,1.6,2.2,79,0.00,,,0.00,WUHU216HW,2013-04-02 16:01:00,
2013-04-02 10:07:00,39.2,33.3,29.93,ESE,113,1.3,2.2,79,0.00,,,0.00,WUHU216HW,2013-04-02 16:07:00,
2013-04-02 10:12:00,39.2,33.3,29.93,West,270,0.4,2.2,79,0.00,,,0.00,WUHU216HW,2013-04-02 16:12:00,
2013-04-02 10:17:00,39.2,33.3,29.93,East,90,0.0,1.3,79,0.00,,,0.00,WUHU216HW,2013-04-02 16:17:00,
2013-04-02 10:22:00,39.2,33.3,29.94,NE,45,2.5,2.5,79,0.00,,,0.00,WUHU216HW,2013-04-02 16:22:00,
2013-04-02 10:27:00,38.9,32.9,29.94,SSE,158,1.1,4.0,79,0.00,,,0.00,WUHU216HW,2013-04-02 16:27:00,
2013-04-02 10:32:00,38.3,32.4,29.94,SE,135,1.1,1.8,79,0.00,,,0.00,WUHU216HW,2013-04-02 16:32:00,
2013-04-02 10:37:00,38.3,32.4,29.94,South,180,0.7,1.8,79,0.00,,,0.00,WUHU216HW,2013-04-02 16:37:00,
2013-04-02 10:42:00,38.3,32.4,29.94,NNE,23,1.6,2.0,79,0.00,,,0.00,WUHU216HW,2013-04-02 16:42:00,
2013-04-02 10:47:00,38.3,32.4,29.94,North,0,1.6,2.2,79,0.00,,,0.00,WUHU216HW,2013-04-02 16:47:00,
2013-04-02 10:52:00,38.0,32.0,29.94,North,0,0.9,2.5,79,0.00,,,0.00,WUHU216HW,2013-04-02 16:52:00,
2013-04-02 10:57:00,38.0,32.0,29.94,SE,135,1.1,2.5,79,0.00,,,0.00,WUHU216HW,2013-04-02 16:57:00,
2013-04-02 11:03:00,38.2,32.2,29.94,ESE,113,0.7,2.2,79,0.00,,,0.00,WUHU216HW,2013-04-02 17:03:00,
2013-04-02 11:08:00,37.8,31.9,29.95,ESE,113,0.0,2.0,79,0.00,,,0.00,WUHU216HW,2013-04-02 17:08:00,
2013-04-02 11:13:00,37.8,31.9,29.95,SE,135,1.1,2.5,79,0.00,,,0.00,WUHU216HW,2013-04-02 17:13:00,
2013-04-02 11:18:00,37.6,31.7,29.95,ESE,113,2.2,3.4,79,0.00,,,0.00,WUHU216HW,2013-04-02 17:18:00,
2013-04-02 11:23:00,37.4,31.5,29.95,NNW,338,0.4,3.4,79,0.00,,,0.00,WUHU216HW,2013-04-02 17:23:00,
2013-04-02 11:28:00,37.4,31.5,29.95,NNW,338,1.3,2.5,79,0.00,,,0.00,WUHU216HW,2013-04-02 17:28:00,
2013-04-02 11:33:00,37.6,31.4,29.95,North,0,2.2,2.5,78,0.00,,,0.00,WUHU216HW,2013-04-02 17:33:00,
2013-04-02 11:38:00,37.4,31.2,29.95,NNE,23,1.1,3.8,78,0.00,,,0.00,WUHU216HW,2013-04-02 17:38:00,
2013-04-02 11:43:00,37.6,31.7,29.95,North,0,5.6,5.6,79,0.00,,,0.00,WUHU216HW,2013-04-02 17:43:00,
2013-04-02 11:48:00,37.6,31.4,29.95,North,0,1.3,5.6,78,0.00,,,0.00,WUHU216HW,2013-04-02 17:48:00,
2013-04-02 11:53:00,37.4,31.2,29.95,North,0,2.5,3.4,78,0.00,,,0.00,WUHU216HW,2013-04-02 17:53:00,
2013-04-02 11:58:00,37.4,31.2,29.94,NNE,23,1.6,6.7,78,0.00,,,0.00,WUHU216HW,2013-04-02 17:58:00,
2013-04-02 12:03:00,37.6,31.4,29.94,NE,45,1.1,6.7,78,0.00,,,0.00,WUHU216HW,2013-04-02 18:03:00,
2013-04-02 12:08:00,37.8,31.6,29.94,NNW,338,1.6,4.7,78,0.00,,,0.00,WUHU216HW,2013-04-02 18:08:00,
2013-04-02 12:13:00,38.0,31.8,29.94,ENE,68,1.6,3.4,78,0.00,,,0.00,WUHU216HW,2013-04-02 18:13:00,
2013-04-02 12:18:00,38.2,32.0,29.94,North,0,3.4,6.9,78,0.00,,,0.00,WUHU216HW,2013-04-02 18:18:00,
2013-04-02 12:23:00,38.2,32.0,29.94,North,0,5.1,6.9,78,0.00,,,0.00,WUHU216HW,2013-04-02 18:23:00,
2013-04-02 12:28:00,38.5,32.6,29.94,ENE,68,2.2,6.9,79,0.00,,,0.00,WUHU216HW,2013-04-02 18:28:00,
2013-04-02 12:33:00,38.7,32.1,29.94,North,0,2.5,4.9,77,0.00,,,0.00,WUHU216HW,2013-04-02 18:33:00,
2013-04-02 12:38:00,38.7,32.1,29.94,NNW,338,1.6,4.9,77,0.00,,,0.00,WUHU216HW,2013-04-02 18:38:00,
2013-04-02 12:43:00,38.7,32.1,29.94,North,0,4.5,4.9,77,0.00,,,0.00,WUHU216HW,2013-04-02 18:43:00,
2013-04-02 12:48:00,38.9,32.3,29.94,NW,315,0.9,4.5,77,0.00,,,0.00,WUHU216HW,2013-04-02 18:48:00,
2013-04-02 12:53:00,38.9,32.3,29.94,North,0,3.4,3.4,77,0.00,,,0.00,WUHU216HW,2013-04-02 18:53:00,
2013-04-02 12:58:00,38.9,32.3,29.94,NW,315,0.0,3.4,77,0.00,,,0.00,WUHU216HW,2013-04-02 18:58:00,
2013-04-02 13:04:00,38.9,32.3,29.94,ENE,68,0.7,3.1,77,0.00,,,0.00,WUHU216HW,2013-04-02 19:04:00,
2013-04-02 13:09:00,38.9,32.3,29.94,North,0,0.2,1.8,77,0.00,,,0.00,WUHU216HW,2013-04-02 19:09:00,
2013-04-02 13:14:00,38.9,32.3,29.94,NNW,338,1.1,1.1,77,0.00,,,0.00,WUHU216HW,2013-04-02 19:14:00,
2013-04-02 13:19:00,38.3,31.4,29.94,ESE,113,0.4,2.2,76,0.00,,,0.00,WUHU216HW,2013-04-02 19:19:00,
2013-04-02 13:24:00,38.0,31.4,29.94,NE,45,0.0,2.2,77,0.00,,,0.00,WUHU216HW,2013-04-02 19:24:00,
2013-04-02 13:29:00,37.8,31.6,29.94,ESE,113,1.1,3.1,78,0.00,,,0.00,WUHU216HW,2013-04-02 19:29:00,
2013-04-02 13:34:00,37.1,31.1,29.94,SE,135,0.4,3.4,79,0.00,,,0.00,WUHU216HW,2013-04-02 19:34:00,
2013-04-02 13:39:00,36.5,31.0,29.94,NNW,338,0.0,3.4,80,0.00,,,0.00,WUHU216HW,2013-04-02 19:39:00,
2013-04-02 13:44:00,36.2,30.9,29.94,NNE,23,1.8,3.4,81,0.00,,,0.00,WUHU216HW,2013-04-02 19:44:00,
2013-04-02 13:49:00,35.8,30.8,29.94,North,0,0.9,3.4,82,0.00,,,0.00,WUHU216HW,2013-04-02 19:49:00,
2013-04-02 13:54:00,35.6,30.6,29.94,North,0,0.0,1.8,82,0.00,,,0.00,WUHU216HW,2013-04-02 19:54:00,
2013-04-02 13:59:00,35.6,30.6,29.94,North,0,1.6,1.6,82,0.00,,,0.00,WUHU216HW,2013-04-02 19:59:00,
2013-04-02 14:04:00,35.6,31.0,29.94,West,270,0.4,2.2,83,0.00,,,0.00,WUHU216HW,2013-04-02 20:04:00,
2013-04-02 14:10:00,35.5,30.8,29.94,North,0,0.4,2.2,83,0.00,,,0.00,WUHU216HW,2013-04-02 20:10:00,
2013-04-02 14:15:00,35.1,30.4,29.93,ENE,68,0.7,3.4,83,0.00,,,0.00,WUHU216HW,2013-04-02 20:15:00,
2013-04-02 14:20:00,35.3,30.6,29.94,ESE,113,0.7,3.4,83,0.00,,,0.00,WUHU216HW,2013-04-02 20:20:00,
2013-04-02 14:25:00,35.3,30.9,29.94,WNW,293,0.2,0.9,84,0.00,,,0.00,WUHU216HW,2013-04-02 20:25:00,
2013-04-02 14:30:00,35.5,31.1,29.94,NW,315,0.0,0.7,84,0.00,,,0.00,WUHU216HW,2013-04-02 20:30:00,
2013-04-02 14:35:00,35.6,31.2,29.93,NW,315,0.0,0.7,84,0.00,,,0.00,WUHU216HW,2013-04-02 20:35:00,
2013-04-02 14:40:00,35.8,31.4,29.94,NW,315,0.4,0.7,84,0.00,,,0.00,WUHU216HW,2013-04-02 20:40:00,
2013-04-02 14:45:00,35.6,31.2,29.94,NW,315,0.0,0.4,84,0.00,,,0.00,WUHU216HW,2013-04-02 20:45:00,
2013-04-02 14:50:00,35.8,31.4,29.94,NW,315,0.0,0.4,84,0.00,,,0.00,WUHU216HW,2013-04-02 20:50:00,
2013-04-02 14:55:00,35.6,31.0,29.94,NW,315,0.0,0.0,83,0.00,,,0.00,WUHU216HW,2013-04-02 20:55:00,
2013-04-02 15:00:00,35.6,31.0,29.94,NW,315,0.0,0.0,83,0.00,,,0.00,WUHU216HW,2013-04-02 21:00:00,
2013-04-02 15:05:00,35.6,31.2,29.94,NW,315,0.0,0.0,84,0.00,,,0.00,WUHU216HW,2013-04-02 21:05:00,
2013-04-02 15:10:00,35.6,31.2,29.94,NW,315,0.0,0.0,84,0.00,,,0.00,WUHU216HW,2013-04-02 21:10:00,
2013-04-02 15:15:00,35.6,31.2,29.94,NW,315,0.0,0.0,84,0.00,,,0.00,WUHU216HW,2013-04-02 21:15:00,
2013-04-02 15:20:00,35.6,31.2,29.93,NNE,23,0.9,0.9,84,0.00,,,0.00,WUHU216HW,2013-04-02 21:20:00,
2013-04-02 15:25:00,35.6,31.2,29.93,ESE,113,0.2,0.9,84,0.00,,,0.00,WUHU216HW,2013-04-02 21:25:00,
2013-04-02 15:30:00,35.6,31.2,29.93,ESE,113,0.0,0.4,84,0.00,,,0.00,WUHU216HW,2013-04-02 21:30:00,
2013-04-02 15:35:00,35.6,31.2,29.93,ENE,68,0.2,0.4,84,0.00,,,0.00,WUHU216HW,2013-04-02 21:35:00,
2013-04-02 15:40:00,35.6,31.2,29.93,NE,45,0.2,0.9,84,0.00,,,0.00,WUHU216HW,2013-04-02 21:40:00,
2013-04-02 15:45:00,35.6,31.2,29.93,ENE,68,0.0,0.9,84,0.00,,,0.00,WUHU216HW,2013-04-02 21:45:00,
2013-04-02 15:51:00,35.6,31.2,29.93,ENE,68,0.0,0.4,84,0.00,,,0.00,WUHU216HW,2013-04-02 21:51:00,
2013-04-02 15:56:00,35.6,31.2,29.93,ENE,68,0.0,0.0,84,0.00,,,0.00,WUHU216HW,2013-04-02 21:56:00,
2013-04-02 16:01:00,35.6,31.2,29.93,NNE,23,0.0,0.7,84,0.00,,,0.00,WUHU216HW,2013-04-02 22:01:00,
2013-04-02 16:07:00,35.8,31.4,29.93,NNE,23,0.0,0.7,84,0.00,,,0.00,WUHU216HW,2013-04-02 22:07:00,
2013-04-02 16:12:00,36.0,31.6,29.93,ESE,113,0.0,0.7,84,0.00,,,0.00,WUHU216HW,2013-04-02 22:12:00,
2013-04-02 16:17:00,36.2,31.8,29.93,SE,135,0.0,0.7,84,0.00,,,0.00,WUHU216HW,2013-04-02 22:17:00,
2013-04-02 16:22:00,36.2,32.0,29.93,NW,315,0.0,0.0,85,0.00,,,0.00,WUHU216HW,2013-04-02 22:22:00,
2013-04-02 16:27:00,36.4,32.2,29.93,NE,45,0.0,0.0,85,0.00,,,0.00,WUHU216HW,2013-04-02 22:27:00,
2013-04-02 16:32:00,36.4,32.2,29.93,NE,45,0.0,0.0,85,0.00,,,0.00,WUHU216HW,2013-04-02 22:32:00,
2013-04-02 16:37:00,36.5,32.4,29.93,NNE,23,0.0,0.0,85,0.00,,,0.00,WUHU216HW,2013-04-02 22:37:00,
2013-04-02 16:42:00,36.5,32.4,29.93,ENE,68,0.0,0.0,85,0.00,,,0.00,WUHU216HW,2013-04-02 22:42:00,
2013-04-02 16:47:00,36.5,32.7,29.93,NNW,338,0.0,0.0,86,0.00,,,0.00,WUHU216HW,2013-04-02 22:47:00,
2013-04-02 16:52:00,36.5,32.4,29.93,ENE,68,0.0,0.0,85,0.00,,,0.00,WUHU216HW,2013-04-02 22:52:00,
2013-04-02 16:57:00,36.5,32.4,29.94,North,0,0.0,0.0,85,0.00,,,0.00,WUHU216HW,2013-04-02 22:57:00,
2013-04-02 17:02:00,36.0,31.9,29.94,North,0,0.0,0.0,85,0.00,,,0.00,WUHU216HW,2013-04-02 23:02:00,
2013-04-02 17:07:00,35.6,31.2,29.94,NE,45,1.1,2.7,84,0.00,,,0.00,WUHU216HW,2013-04-02 23:07:00,
2013-04-02 17:12:00,35.6,31.2,29.94,NE,45,0.0,2.7,84,0.00,,,0.00,WUHU216HW,2013-04-02 23:12:00,
2013-04-02 17:17:00,35.5,31.3,29.94,WSW,248,0.0,1.1,85,0.00,,,0.00,WUHU216HW,2013-04-02 23:17:00,
2013-04-02 17:22:00,35.5,31.3,29.94,ENE,68,0.7,1.1,85,0.00,,,0.00,WUHU216HW,2013-04-02 23:22:00,
2013-04-02 17:27:00,35.3,31.1,29.94,North,0,0.0,0.9,85,0.00,,,0.00,WUHU216HW,2013-04-02 23:27:00,
2013-04-02 17:33:00,35.3,31.1,29.94,North,0,0.0,0.7,85,0.00,,,0.00,WUHU216HW,2013-04-02 23:33:00,
2013-04-02 17:38:00,35.3,31.1,29.94,North,0,0.0,0.0,85,0.00,,,0.00,WUHU216HW,2013-04-02 23:38:00,
2013-04-02 17:43:00,35.5,31.3,29.94,NW,315,0.0,0.4,85,0.00,,,0.00,WUHU216HW,2013-04-02 23:43:00,
2013-04-02 17:48:00,35.5,31.3,29.94,North,0,1.1,1.1,85,0.00,,,0.00,WUHU216HW,2013-04-02 23:48:00,
2013-04-02 17:53:00,35.5,31.3,29.94,NE,45,0.0,1.1,85,0.00,,,0.00,WUHU216HW,2013-04-02 23:53:00,
2013-04-02 17:58:00,35.5,31.3,29.94,NE,45,0.0,0.4,85,0.00,,,0.00,WUHU216HW,2013-04-02 23:58:00,
2013-04-02 18:03:00,35.6,31.5,29.94,NE,45,0.0,0.0,85,0.00,,,0.00,WUHU216HW,2013-04-03 00:03:00,
2013-04-02 18:08:00,35.6,31.8,29.94,WSW,248,1.1,1.1,86,0.00,,,0.00,WUHU216HW,2013-04-03 00:08:00,
2013-04-02 18:13:00,35.6,31.5,29.94,SSE,158,0.2,1.1,85,0.00,,,0.00,WUHU216HW,2013-04-03 00:13:00,
2013-04-02 18:18:00,35.6,31.5,29.95,SW,225,0.0,0.9,85,0.00,,,0.00,WUHU216HW,2013-04-03 00:18:00,
2013-04-02 18:23:00,35.6,31.5,29.94,WSW,248,0.0,1.3,85,0.00,,,0.00,WUHU216HW,2013-04-03 00:23:00,
2013-04-02 18:28:00,35.8,32.2,29.94,SW,225,0.0,1.3,87,0.00,,,0.00,WUHU216HW,2013-04-03 00:28:00,
2013-04-02 18:33:00,35.8,32.2,29.94,SW,225,0.0,0.0,87,0.00,,,0.00,WUHU216HW,2013-04-03 00:33:00,
2013-04-02 18:38:00,35.8,32.2,29.95,SE,135,0.4,0.7,87,0.00,,,0.00,WUHU216HW,2013-04-03 00:38:00,
2013-04-02 18:44:00,35.8,32.2,29.95,SW,225,0.0,0.7,87,0.00,,,0.00,WUHU216HW,2013-04-03 00:44:00,
2013-04-02 18:49:00,35.8,32.2,29.95,SW,225,0.0,0.7,87,0.00,,,0.00,WUHU216HW,2013-04-03 00:49:00,
2013-04-02 18:54:00,35.8,32.2,29.95,SW,225,0.0,0.0,87,0.00,,,0.00,WUHU216HW,2013-04-03 00:54:00,
2013-04-02 18:59:00,35.8,32.2,29.95,WNW,293,0.0,0.9,87,0.00,,,0.00,WUHU216HW,2013-04-03 00:59:00,
2013-04-02 19:04:00,35.6,31.8,29.95,WNW,293,0.0,0.9,86,0.00,,,0.00,WUHU216HW,2013-04-03 01:04:00,
2013-04-02 19:09:00,35.6,31.8,29.95,WNW,293,0.0,0.2,86,0.00,,,0.00,WUHU216HW,2013-04-03 01:09:00,
2013-04-02 19:14:00,35.6,31.8,29.95,WNW,293,0.0,0.2,86,0.00,,,0.00,WUHU216HW,2013-04-03 01:14:00,
2013-04-02 19:19:00,35.6,31.8,29.95,WNW,293,0.0,0.0,86,0.00,,,0.00,WUHU216HW,2013-04-03 01:19:00,
2013-04-02 19:24:00,35.5,31.6,29.95,SSW,203,0.2,0.4,86,0.00,,,0.00,WUHU216HW,2013-04-03 01:24:00,
2013-04-02 19:29:00,35.5,31.6,29.95,SSE,158,0.0,0.9,86,0.00,,,0.00,WUHU216HW,2013-04-03 01:29:00,
2013-04-02 19:34:00,35.3,31.4,29.95,SSE,158,0.0,0.9,86,0.00,,,0.00,WUHU216HW,2013-04-03 01:34:00,
2013-04-02 19:39:00,35.5,31.6,29.95,SSE,158,0.0,0.0,86,0.00,,,0.00,WUHU216HW,2013-04-03 01:39:00,
2013-04-02 19:44:00,35.5,31.6,29.95,SSE,158,0.0,0.0,86,0.00,,,0.00,WUHU216HW,2013-04-03 01:44:00,
2013-04-02 19:49:00,35.5,31.6,29.95,SSE,158,0.0,0.0,86,0.00,,,0.00,WUHU216HW,2013-04-03 01:49:00,
2013-04-02 19:54:00,35.6,31.8,29.95,SSE,158,0.0,0.4,86,0.00,,,0.00,WUHU216HW,2013-04-03 01:54:00,
2013-04-02 19:59:00,35.6,31.8,29.95,SSE,158,0.0,0.4,86,0.00,,,0.00,WUHU216HW,2013-04-03 01:59:00,
2013-04-02 20:04:00,35.6,31.8,29.95,SSE,158,0.0,0.0,86,0.00,,,0.00,WUHU216HW,2013-04-03 02:04:00,
2013-04-02 20:09:00,35.6,31.8,29.96,SW,225,0.0,0.0,86,0.00,,,0.00,WUHU216HW,2013-04-03 02:09:00,
2013-04-02 20:14:00,35.6,32.0,29.96,WSW,248,0.0,0.0,87,0.00,,,0.00,WUHU216HW,2013-04-03 02:14:00,
2013-04-02 20:19:00,35.6,31.8,29.96,SW,225,0.0,0.0,86,0.00,,,0.00,WUHU216HW,2013-04-03 02:19:00,
2013-04-02 20:24:00,35.6,31.8,29.96,SW,225,0.0,0.0,86,0.00,,,0.00,WUHU216HW,2013-04-03 02:24:00,
2013-04-02 20:29:00,35.6,32.0,29.96,SW,225,0.0,0.0,87,0.00,,,0.00,WUHU216HW,2013-04-03 02:29:00,
2013-04-02 20:34:00,35.6,32.0,29.96,SW,225,0.0,0.0,87,0.00,,,0.00,WUHU216HW,2013-04-03 02:34:00,
2013-04-02 20:39:00,35.6,32.0,29.96,SSW,203,0.0,0.2,87,0.00,,,0.00,WUHU216HW,2013-04-03 02:39:00,
2013-04-02 20:44:00,35.6,32.0,29.97,SSW,203,0.0,0.2,87,0.00,,,0.00,WUHU216HW,2013-04-03 02:44:00,
2013-04-02 20:49:00,35.6,32.0,29.97,SSE,158,0.0,0.9,87,0.00,,,0.00,WUHU216HW,2013-04-03 02:49:00,
2013-04-02 20:54:00,35.6,32.0,29.97,SSE,158,0.0,0.9,87,0.00,,,0.00,WUHU216HW,2013-04-03 02:54:00,
2013-04-02 20:59:00,35.6,32.0,29.97,SSE,158,0.4,0.4,87,0.00,,,0.00,WUHU216HW,2013-04-03 02:59:00,
2013-04-02 21:04:00,35.6,32.0,29.97,SSE,158,0.2,0.7,87,0.00,,,0.00,WUHU216HW,2013-04-03 03:04:00,
2013-04-02 21:09:00,35.8,32.2,29.97,SSE,158,0.0,0.7,87,0.00,,,0.00,WUHU216HW,2013-04-03 03:09:00,
2013-04-02 21:14:00,35.8,32.2,29.97,SSE,158,0.0,0.0,87,0.00,,,0.00,WUHU216HW,2013-04-03 03:14:00,
2013-04-02 21:19:00,35.8,32.2,29.97,SSE,158,0.0,0.0,87,0.00,,,0.00,WUHU216HW,2013-04-03 03:19:00,
2013-04-02 21:24:00,35.8,32.2,29.97,SSE,158,0.0,0.0,87,0.00,,,0.00,WUHU216HW,2013-04-03 03:24:00,
2013-04-02 21:29:00,36.0,32.4,29.97,SSE,158,0.0,0.0,87,0.00,,,0.00,WUHU216HW,2013-04-03 03:29:00,
2013-04-02 21:34:00,36.0,32.4,29.97,SSE,158,0.0,0.9,87,0.00,,,0.00,WUHU216HW,2013-04-03 03:34:00,
2013-04-02 21:39:00,36.0,32.4,29.97,SSE,158,0.0,0.9,87,0.00,,,0.00,WUHU216HW,2013-04-03 03:39:00,
2013-04-02 21:44:00,36.0,32.4,29.97,SSE,158,0.0,0.0,87,0.00,,,0.00,WUHU216HW,2013-04-03 03:44:00,
2013-04-02 21:50:00,36.0,32.4,29.97,SSE,158,0.0,0.0,87,0.00,,,0.00,WUHU216HW,2013-04-03 03:50:00,
2013-04-02 21:55:00,36.0,32.4,29.97,SSE,158,0.0,0.0,87,0.00,,,0.00,WUHU216HW,2013-04-03 03:55:00,
2013-04-02 22:00:00,36.0,32.4,29.97,SSE,158,0.0,0.0,87,0.00,,,0.00,WUHU216HW,2013-04-03 04:00:00,
2013-04-02 22:05:00,36.2,32.6,29.97,SSE,158,0.0,0.0,87,0.00,,,0.00,WUHU216HW,2013-04-03 04:05:00,
2013-04-02 22:10:00,36.2,32.6,29.97,SSE,158,0.0,0.0,87,0.00,,,0.00,WUHU216HW,2013-04-03 04:10:00,
2013-04-02 22:15:00,36.2,32.6,29.97,SSE,158,0.0,0.0,87,0.00,,,0.00,WUHU216HW,2013-04-03 04:15:00,
2013-04-02 22:20:00,36.2,32.6,29.97,SSE,158,0.0,0.0,87,0.00,,,0.00,WUHU216HW,2013-04-03 04:20:00,
2013-04-02 22:25:00,36.0,32.4,29.97,SSE,158,0.0,0.0,87,0.00,,,0.00,WUHU216HW,2013-04-03 04:25:00,
2013-04-02 22:30:00,36.2,32.6,29.97,SSW,203,0.0,0.0,87,0.00,,,0.00,WUHU216HW,2013-04-03 04:30:00,
2013-04-02 22:35:00,36.0,32.4,29.97,SSW,203,0.0,0.0,87,0.00,,,0.00,WUHU216HW,2013-04-03 04:35:00,
2013-04-02 22:40:00,36.2,32.6,29.97,SSW,203,0.0,0.0,87,0.00,,,0.00,WUHU216HW,2013-04-03 04:40:00,
2013-04-02 22:45:00,36.2,32.6,29.97,SSW,203,0.0,0.0,87,0.00,,,0.00,WUHU216HW,2013-04-03 04:45:00,
2013-04-02 22:50:00,36.0,32.4,29.97,SSW,203,0.0,0.0,87,0.00,,,0.00,WUHU216HW,2013-04-03 04:50:00,
2013-04-02 22:55:00,36.2,32.6,29.97,SSW,203,0.0,0.0,87,0.00,,,0.00,WUHU216HW,2013-04-03 04:55:00,
2013-04-02 23:00:00,36.0,32.4,29.97,SSW,203,0.0,0.0,87,0.00,,,0.00,WUHU216HW,2013-04-03 05:00:00,
2013-04-02 23:05:00,36.2,32.6,29.97,SSW,203,0.0,0.0,87,0.00,,,0.00,WUHU216HW,2013-04-03 05:05:00,
2013-04-02 23:10:00,36.2,32.6,29.97,SSW,203,0.0,0.0,87,0.00,,,0.00,WUHU216HW,2013-04-03 05:10:00,
2013-04-02 23:15:00,36.2,32.6,29.97,SSW,203,0.0,0.0,87,0.00,,,0.00,WUHU216HW,2013-04-03 05:15:00,
2013-04-02 23:20:00,36.2,32.6,29.97,SSW,203,0.0,0.0,87,0.00,,,0.00,WUHU216HW,2013-04-03 05:20:00,
2013-04-02 23:25:00,36.2,32.6,29.97,SSW,203,0.0,0.0,87,0.00,,,0.00,WUHU216HW,2013-04-03 05:25:00,
2013-04-02 23:30:00,36.2,32.6,29.96,SSW,203,0.0,0.0,87,0.00,,,0.00,WUHU216HW,2013-04-03 05:30:00,
2013-04-02 23:35:00,36.2,32.6,29.96,SSW,203,0.0,0.0,87,0.00,,,0.00,WUHU216HW,2013-04-03 05:35:00,
2013-04-02 23:40:00,36.0,32.4,29.96,South,180,0.4,0.4,87,0.00,,,0.00,WUHU216HW,2013-04-03 05:40:00,
2013-04-02 23:45:00,36.0,32.4,29.96,South,180,0.0,0.4,87,0.00,,,0.00,WUHU216HW,2013-04-03 05:45:00,
2013-04-02 23:50:00,36.2,32.6,29.96,South,180,0.0,0.0,87,0.00,,,0.00,WUHU216HW,2013-04-03 05:50:00,
2013-04-02 23:55:00,36.0,32.4,29.96,South,180,0.0,0.0,87,0.00,,,0.00,WUHU216HW,2013-04-03 05:55:00,